Latest Coastal Weather Observations for King Island Airport

IDV60701

Issued at 8:45 pm EDT Sunday 23 November 2014 (issued every 10 minutes, with the page automatically refreshed every 10 minutes)

About coastal observations | Map of coastal stations | Coastal observations for VIC | Marine services | Other Formats
Station Details ID: 098017 Name: KING ISLAND AIRPORT Lat: -39.88 Lon: 143.88 Height: 37.0 m
Data from the previous 72 hours. | See also: Recent months at King Island Airport
Date/Time
EDT
Temp

°C
Wind Pressure Rain
since 9am
mm
Weather Cloud Vis
km
Sea
Height
m
Swell
Dir
 
Speed
knots
Gust
knots
hPa Trend Height
m
Period
s
Dir
23/08:30pm 14.5 SE 3 6 1012.4 - 0.0 - - 10 - - - -
23/08:00pm 15.1 SSW 3 4 1012.9 - 0.0 - - 10 - - - -
23/07:30pm 15.6 W 5 6 1013.1 - 0.0 - - 10 - - - -
23/07:00pm 15.9 W 7 9 1013.1 - 0.0 - Partly cloudy 10 - - - -
23/06:30pm 16.1 WNW 9 12 1013.3 - 0.0 - Partly cloudy 10 - - - -
23/06:00pm 16.7 WNW 11 15 1013.3 - 0.0 - Partly cloudy 10 - - - -
23/05:30pm 16.7 WNW 10 14 1013.0 - 0.0 - Partly cloudy 10 - - - -
23/05:00pm 16.9 NW 10 15 1013.0 - 0.0 - - 10 - - - -
23/04:30pm 17.5 NW 9 14 1012.7 - 0.0 - - 10 - - - -
23/04:00pm 17.3 WNW 9 13 1012.5 - 0.0 - - 10 - - - -
23/03:30pm 17.3 NW 9 13 1012.6 - 0.0 - Partly cloudy 10 - - - -
23/03:00pm 17.9 WNW 9 14 1012.5 - 0.0 - Mostly clear 10 - - - -
23/02:30pm 17.0 W 10 16 1012.1 - 0.0 - Partly cloudy 10 - - - -
23/02:00pm 17.1 W 10 16 1012.1 - 0.0 - Partly cloudy 10 - - - -
23/01:30pm 17.2 WNW 11 16 1012.2 - 0.0 - Partly cloudy 10 - - - -
23/01:00pm 16.8 WNW 11 19 1012.4 - 0.0 - Partly cloudy 10 - - - -
23/12:30pm 16.9 WNW 11 15 1012.6 - 0.0 - Partly cloudy 10 - - - -
23/12:00pm 17.3 WNW 12 16 1012.6 - 0.0 - Mostly clear 10 - - - -
23/11:30am 16.7 NW 12 16 1012.8 - 0.0 - Partly cloudy 10 - - - -
23/11:00am 16.5 NW 11 15 1012.8 - 0.0 - Partly cloudy 10 - - - -
23/10:30am 16.7 NW 12 16 1012.8 - 0.0 - Partly cloudy 10 - - - -
23/10:00am 16.0 NW 11 15 1012.6 - 0.0 - Partly cloudy 10 - - - -
23/09:30am 15.8 WNW 9 13 1012.6 - 0.0 - Partly cloudy 10 - - - -
23/09:00am 15.6 WNW 9 12 1012.5 - 0.0 - Mostly clear 10 - - - -
23/08:30am 15.2 WNW 8 10 1012.2 - 0.0 - Partly cloudy 10 - - - -
23/08:00am 15.0 WNW 8 10 1011.9 - 0.0 - Partly cloudy 10 - - - -
23/07:30am 15.0 W 7 10 1011.5 - 0.0 - Partly cloudy 10 - - - -
23/07:00am 13.9 W 7 9 1011.2 - 0.0 - Partly cloudy 10 - - - -
23/06:30am 13.2 W 7 9 1010.7 - 0.0 - Partly cloudy 10 - - - -
23/06:00am 13.1 W 8 11 1010.5 - 0.0 - Mostly clear 10 - - - -
23/05:30am 13.1 W 8 12 1010.1 - 0.0 - - 10 - - - -
23/05:00am 13.1 W 9 12 1009.8 - 0.0 - Partly cloudy 10 - - - -
23/04:30am 13.3 W 10 14 1009.6 - 0.0 - Partly cloudy 10 - - - -
23/04:00am 13.2 W 9 12 1009.3 - 0.0 - - 10 - - - -
23/03:30am 13.3 W 9 12 1009.1 - 0.0 - - 10 - - - -
23/03:00am 13.2 W 8 12 1009.1 - 0.0 - - 10 - - - -
23/02:30am 13.6 W 11 15 1009.0 - 0.0 - - 10 - - - -
23/02:00am 13.9 W 12 17 1009.0 - 0.0 - Partly cloudy 10 - - - -
23/01:30am 14.0 WSW 11 16 1009.1 - 0.0 - - 10 - - - -
23/01:00am 14.1 W 11 15 1009.1 - 0.0 - Partly cloudy 10 - - - -
23/12:30am 14.2 W 10 14 1008.8 - 0.0 - Partly cloudy 10 - - - -
23/12:15am 14.1 W 10 14 1008.6 - 0.0 - Partly cloudy 10 - - - -
23/12:00am 14.2 WSW 11 15 1008.4 - 0.0 - Partly cloudy 10 - - - -
 
Date/Time
EDT
Temp

°C
Wind Pressure Rain
since 9am
mm
Weather Cloud Vis
km
Sea
Height
m
Swell
Dir
 
Speed
knots
Gust
knots
hPa Trend Height
m
Period
s
Dir
22/11:30pm 14.8 WSW 13 18 1008.3 - 0.0 - Cloudy 10 - - - -
22/11:10pm 14.9 WSW 9 12 1008.0 - 0.0 - Partly cloudy 10 - - - -
22/11:00pm 14.6 WSW 10 14 1007.9 - 0.0 - Partly cloudy 10 - - - -
22/10:30pm 14.8 WSW 9 13 1007.8 - 0.0 - - 10 - - - -
22/10:00pm 15.0 W 9 12 1007.4 - 0.0 - - 10 - - - -
22/09:30pm 15.5 W 9 13 1007.0 - 0.0 - Partly cloudy 10 - - - -
22/09:00pm 16.0 WSW 8 10 1006.3 - 0.0 - Partly cloudy 10 - - - -
22/08:30pm 16.7 WSW 10 13 1006.0 - 0.0 - Partly cloudy 10 - - - -
22/08:00pm 17.4 WSW 10 14 1005.6 - 0.0 - Partly cloudy 10 - - - -
22/07:30pm 18.1 WSW 9 14 1004.9 - 0.0 - Partly cloudy 10 - - - -
22/07:00pm 18.9 W 8 10 1004.6 - 0.0 - Partly cloudy 10 - - - -
22/06:30pm 19.5 NW 6 8 1004.4 - 0.0 - Partly cloudy 10 - - - -
22/06:00pm 20.3 WNW 12 14 1004.6 - 0.0 - Mostly clear 10 - - - -
22/05:30pm 24.0 NNW 14 18 1004.3 - 0.0 - Partly cloudy 10 - - - -
22/05:00pm 24.2 NNE 9 12 1004.0 - 0.0 - Partly cloudy 10 - - - -
22/04:30pm 24.2 NE 11 14 1003.9 - 0.0 - Partly cloudy 10 - - - -
22/04:00pm 25.1 N 14 18 1004.3 - 0.0 - Partly cloudy 10 - - - -
22/03:30pm 24.9 N 12 17 1004.7 - 0.0 - Partly cloudy 10 - - - -
22/03:00pm 23.4 NNE 13 17 1005.2 - 0.0 - - 10 - - - -
22/02:30pm 22.8 NNE 13 16 1005.6 - 0.0 - Partly cloudy 10 - - - -
22/02:00pm 21.7 NNE 12 17 1005.8 - 0.0 - Partly cloudy 10 - - - -
22/01:30pm 21.5 NE 12 16 1006.1 - 0.0 - Partly cloudy 10 - - - -
22/01:00pm 18.7 E 7 9 1006.9 - 0.0 - Cloudy 10 - - - -
22/12:30pm 17.6 NNE 9 13 1007.8 - 0.0 - Cloudy 10 - - - -
22/12:00pm 17.0 NE 8 11 1008.0 - 0.0 Drizzle Mostly cloudy 10 - - - -
22/11:30am 16.7 NE 9 15 1007.8 - 0.0 - Cloudy 10 - - - -
22/11:00am 16.5 NE 10 14 1008.2 - 0.0 - Cloudy 10 - - - -
22/10:30am 16.6 NE 12 18 1007.9 - 0.0 - Partly cloudy 10 - - - -
22/10:00am 17.4 NE 13 18 1008.1 - 0.0 - Partly cloudy 10 - - - -
22/09:30am 16.7 NE 13 18 1008.3 - 0.0 - Partly cloudy 10 - - - -
22/09:00am 15.1 NE 9 14 1008.5 - 2.0 - Cloudy 10 - - - -
22/08:30am 13.8 NE 7 9 1008.8 - 2.0 - Partly cloudy 10 - - - -
22/08:00am 13.5 NE 9 14 1008.9 - 2.0 - Partly cloudy 10 - - - -
22/07:30am 13.2 NE 8 12 1009.1 - 2.0 - Partly cloudy 10 - - - -
22/07:00am 12.9 NE 8 11 1008.6 - 2.0 - Partly cloudy 10 - - - -
22/06:30am 12.7 NE 8 9 1008.7 - 2.0 - Partly cloudy 10 - - - -
22/06:00am 13.0 NNE 12 16 1009.2 - 2.0 Rain Cloudy 10 - - - -
22/05:30am 13.3 N 8 10 1010.2 - 1.4 - Partly cloudy 10 - - - -
22/05:00am 13.7 N 11 14 1010.5 - 0.6 - Partly cloudy 10 - - - -
22/04:30am 13.3 N 9 13 1010.5 - 0.2 - Partly cloudy 10 - - - -
22/04:00am 12.7 N 7 9 1010.2 - 0.2 - Partly cloudy 10 - - - -
22/03:30am 11.9 NNE 7 9 1009.7 - 0.2 - Cloudy 10 - - - -
22/03:00am 11.3 NNE 7 10 1009.4 - 0.2 - Mostly clear 10 - - - -
22/02:30am 10.7 NE 7 9 1009.3 - 0.2 - - 10 - - - -
22/02:00am 10.3 NE 6 9 1009.7 - 0.2 - - 10 - - - -
22/01:30am 10.2 NE 6 7 1010.3 - 0.2 - - 10 - - - -
22/01:00am 9.8 NE 7 8 1010.8 - 0.2 - - 10 - - - -
22/12:30am 9.8 NE 7 8 1011.2 - 0.2 - - 10 - - - -
22/12:00am 9.1 NE 6 7 1011.4 - 0.2 - - 10 - - - -
 
Date/Time
EDT
Temp

°C
Wind Pressure Rain
since 9am
mm
Weather Cloud Vis
km
Sea
Height
m
Swell
Dir
 
Speed
knots
Gust
knots
hPa Trend Height
m
Period
s
Dir
21/11:30pm 8.9 NE 5 6 1011.9 - 0.2 - - 10 - - - -
21/11:00pm 8.9 E 5 6 1012.0 - 0.2 - - 10 - - - -
21/10:30pm 9.7 E 3 4 1012.2 - 0.2 - - 10 - - - -
21/10:00pm 10.1 E 3 4 1012.2 - 0.2 - - 10 - - - -
21/09:30pm 10.6 NE 3 4 1012.3 - 0.2 - - 10 - - - -
21/09:00pm 11.9 CALM 0 0 1012.1 - 0.2 - - 10 - - - -
21/08:30pm 12.7 NW 5 7 1012.0 - 0.2 - - 10 - - - -
21/08:00pm 13.7 WNW 7 9 1011.6 - 0.2 - - 10 - - - -
21/07:30pm 14.5 WNW 9 12 1011.5 - 0.2 - - 10 - - - -
21/07:00pm 14.8 WNW 11 14 1011.3 - 0.2 - - 10 - - - -
21/06:30pm 15.0 WNW 13 16 1011.4 - 0.2 - - 10 - - - -
21/06:00pm 15.1 WNW 12 16 1011.1 - 0.2 - - 10 - - - -
21/05:30pm 15.3 WNW 13 16 1011.2 - 0.2 - - 10 - - - -
21/05:00pm 15.4 WNW 13 17 1010.9 - 0.2 - Partly cloudy 10 - - - -
21/04:30pm 16.1 W 12 16 1010.9 - 0.2 - Partly cloudy 10 - - - -
21/04:00pm 15.6 WNW 12 15 1010.9 - 0.2 - Partly cloudy 10 - - - -
21/03:30pm 15.5 WNW 13 18 1011.0 - 0.2 - Partly cloudy 10 - - - -
21/03:00pm 15.4 W 12 16 1011.1 - 0.2 - Mostly clear 10 - - - -
21/02:30pm 15.2 W 13 17 1011.2 - 0.2 - Partly cloudy 10 - - - -
21/02:00pm 15.5 W 12 16 1011.2 - 0.2 - Partly cloudy 10 - - - -
21/01:30pm 15.0 W 13 18 1011.2 - 0.2 - Partly cloudy 10 - - - -
21/01:00pm 15.0 WSW 13 17 1011.2 - 0.0 - Partly cloudy 10 - - - -
21/12:30pm 15.0 W 13 17 1011.0 - 0.0 - Partly cloudy 10 - - - -
21/12:00pm 14.9 W 12 16 1010.8 - 0.0 - Mostly clear 10 - - - -
21/11:30am 15.0 WSW 13 16 1010.8 - 0.0 - - 10 - - - -
21/11:00am 15.0 WSW 12 16 1010.2 - 0.0 - - 10 - - - -
21/10:30am 12.5 SW 11 15 1010.1 - 0.0 - Partly cloudy 10 - - - -
21/10:00am 12.9 W 17 21 1010.3 - 0.0 - Partly cloudy 9 - - - -
21/09:30am 13.6 W 12 17 1009.6 - 0.0 - Partly cloudy 10 - - - -
21/09:00am 13.5 WSW 9 14 1009.1 - 11.2 - Partly cloudy 10 - - - -
21/08:30am 12.6 WSW 9 14 1009.2 - 11.2 - Partly cloudy 10 - - - -
21/08:00am 12.4 WSW 9 13 1009.3 - 11.2 - Partly cloudy 10 - - - -
21/07:30am 12.1 WSW 11 16 1008.5 - 11.2 - Cloudy 10 - - - -
21/07:00am 12.1 SW 11 16 1008.2 - 11.2 - Partly cloudy 10 - - - -
21/06:30am 11.8 SW 12 16 1007.5 - 11.2 - Partly cloudy 10 - - - -
21/06:00am 11.6 SW 12 16 1007.0 - 11.2 - Mostly cloudy 10 - - - -
21/05:30am 11.7 SW 14 17 1006.4 - 11.2 - Partly cloudy 10 - - - -
21/05:00am 12.0 SW 15 21 1006.1 - 11.2 - Partly cloudy 10 - - - -
21/04:30am 12.2 SW 14 20 1005.9 - 11.2 - Partly cloudy 10 - - - -
21/04:29am 12.2 SW 14 20 1005.9 - 11.2 - Partly cloudy 10 - - - -
21/04:07am 12.4 SW 15 20 1005.4 - 11.2 - Partly cloudy 10 - - - -
21/04:00am 12.4 SW 15 20 1005.4 - 11.2 - Partly cloudy 9 - - - -
21/03:30am 13.1 WSW 15 21 1004.8 - 11.0 - Partly cloudy 5 - - - -
21/03:22am 13.5 WSW 14 18 1004.7 - 11.0 - Partly cloudy 5 - - - -
21/03:19am 13.5 WSW 13 18 1004.7 - 11.0 - Partly cloudy 5 - - - -
21/03:17am 13.5 WSW 13 18 1004.6 - 11.0 - Partly cloudy 6 - - - -
21/03:04am 13.8 WSW 11 15 1004.6 - 11.0 - Partly cloudy 5 - - - -
21/03:00am 13.9 WSW 11 15 1004.5 - 11.0 Rain Cloudy 7 - - - -
21/02:30am 14.0 WSW 11 17 1004.5 - 11.0 - Cloudy 10 - - - -
21/02:00am 14.0 WSW 12 18 1004.4 - 11.0 - Cloudy 10 - - - -
21/01:42am 13.9 WSW 10 15 1004.5 - 11.0 - Partly cloudy 10 - - - -
21/01:30am 13.9 WSW 13 18 1004.5 - 11.0 - Partly cloudy 10 - - - -
21/01:02am 13.7 WSW 12 17 1004.5 - 11.0 - Partly cloudy 10 - - - -
21/01:00am 13.9 W 12 17 1004.5 - 11.0 - Partly cloudy 10 - - - -
21/12:30am 14.1 W 13 18 1004.4 - 11.0 - Partly cloudy 10 - - - -
21/12:01am 14.0 W 11 15 1004.4 - 11.0 - Partly cloudy 10 - - - -
21/12:00am 14.0 W 11 15 1004.4 - 11.0 - Partly cloudy 10 - - - -
 
Date/Time
EDT
Temp

°C
Wind Pressure Rain
since 9am
mm
Weather Cloud Vis
km
Sea
Height
m
Swell
Dir
 
Speed
knots
Gust
knots
hPa Trend Height
m
Period
s
Dir
20/11:30pm 14.6 W 13 17 1004.4 - 11.0 - Cloudy 9 - - - -
20/11:03pm 14.7 WNW 13 17 1004.3 - 11.0 - Partly cloudy 8 - - - -
20/11:00pm 14.7 WNW 13 17 1004.3 - 11.0 - Partly cloudy 8 - - - -
20/10:37pm 14.7 WNW 12 15 1004.1 - 11.0 - Partly cloudy 9 - - - -
20/10:30pm 14.7 WNW 10 13 1004.1 - 11.0 - Partly cloudy 9 - - - -
20/10:00pm 15.1 WNW 13 17 1004.1 - 11.0 - Cloudy 8 - - - -
20/09:30pm 15.5 NW 14 17 1004.1 - 11.0 - Cloudy 9 - - - -
20/09:00pm 15.8 NW 12 15 1003.9 - 11.0 Rain Cloudy 8 - - - -

Other Formats:

Comma delimited format used in spreadsheet applications
http://www.bom.gov.au/fwo/IDV60701/IDV60701.94850.axf

JavaScript Object Notation format (JSON) in row-major order
http://www.bom.gov.au/fwo/IDV60701/IDV60701.94850.json